sensor_id;sensor_type;location;lat;lon;timestamp;pressure;altitude;pressure_sealevel;temperature;humidity
64876;BME280;51369;49.862;9.908;2022-12-29T00:02:17;97751.91;;;9.67;69.01
64876;BME280;51369;49.862;9.908;2022-12-29T00:04:42;97749.06;;;9.70;69.53
64876;BME280;51369;49.862;9.908;2022-12-29T00:07:07;97739.88;;;9.74;69.45
64876;BME280;51369;49.862;9.908;2022-12-29T00:09:33;97747.66;;;9.80;69.11
64876;BME280;51369;49.862;9.908;2022-12-29T00:12:00;97741.09;;;9.86;69.71
64876;BME280;51369;49.862;9.908;2022-12-29T00:14:26;97741.72;;;9.91;69.83
64876;BME280;51369;49.862;9.908;2022-12-29T00:17:09;97737.00;;;9.96;69.53
64876;BME280;51369;49.862;9.908;2022-12-29T00:19:35;97743.03;;;10.01;68.98
64876;BME280;51369;49.862;9.908;2022-12-29T00:22:19;97734.63;;;10.07;69.33
64876;BME280;51369;49.862;9.908;2022-12-29T00:25:04;97724.47;;;10.12;69.35
64876;BME280;51369;49.862;9.908;2022-12-29T00:27:48;97719.78;;;10.16;68.99
64876;BME280;51369;49.862;9.908;2022-12-29T00:30:32;97724.09;;;10.20;68.40
64876;BME280;51369;49.862;9.908;2022-12-29T00:33:18;97717.69;;;10.22;68.98
64876;BME280;51369;49.862;9.908;2022-12-29T00:36:13;97719.34;;;10.25;68.54
64876;BME280;51369;49.862;9.908;2022-12-29T00:38:46;97721.03;;;10.27;68.49
64876;BME280;51369;49.862;9.908;2022-12-29T00:41:30;97716.41;;;10.29;68.65
64876;BME280;51369;49.862;9.908;2022-12-29T00:44:14;97711.81;;;10.31;68.47
64876;BME280;51369;49.862;9.908;2022-12-29T00:46:42;97713.47;;;10.34;68.00
64876;BME280;51369;49.862;9.908;2022-12-29T00:49:09;97706.16;;;10.36;68.33
64876;BME280;51369;49.862;9.908;2022-12-29T00:51:54;97702.34;;;10.40;68.59
64876;BME280;51369;49.862;9.908;2022-12-29T00:54:21;97693.28;;;10.41;69.22
64876;BME280;51369;49.862;9.908;2022-12-29T00:56:48;97697.66;;;10.43;68.44
64876;BME280;51369;49.862;9.908;2022-12-29T00:59:16;97702.00;;;10.46;68.93
64876;BME280;51369;49.862;9.908;2022-12-29T01:01:42;97692.09;;;10.47;68.29
64876;BME280;51369;49.862;9.908;2022-12-29T01:04:07;97708.97;;;10.50;68.70
64876;BME280;51369;49.862;9.908;2022-12-29T01:06:35;97697.16;;;10.53;69.15
64876;BME280;51369;49.862;9.908;2022-12-29T01:09:01;97697.00;;;10.56;68.38
64876;BME280;51369;49.862;9.908;2022-12-29T01:11:46;97703.00;;;10.61;68.02
64876;BME280;51369;49.862;9.908;2022-12-29T01:14:11;97705.56;;;10.64;69.12
64876;BME280;51369;49.862;9.908;2022-12-29T01:16:37;97707.22;;;10.66;68.67
64876;BME280;51369;49.862;9.908;2022-12-29T01:19:03;97706.19;;;10.69;68.29
64876;BME280;51369;49.862;9.908;2022-12-29T01:21:29;97707.75;;;10.73;68.36
64876;BME280;51369;49.862;9.908;2022-12-29T01:23:54;97709.41;;;10.75;69.16
64876;BME280;51369;49.862;9.908;2022-12-29T01:26:19;97709.34;;;10.77;68.84
64876;BME280;51369;49.862;9.908;2022-12-29T01:28:45;97706.47;;;10.80;69.28
64876;BME280;51369;49.862;9.908;2022-12-29T01:31:13;97704.47;;;10.84;69.84
64876;BME280;51369;49.862;9.908;2022-12-29T01:33:40;97705.25;;;10.86;69.97
64876;BME280;51369;49.862;9.908;2022-12-29T01:36:08;97704.38;;;10.85;70.29
64876;BME280;51369;49.862;9.908;2022-12-29T01:38:35;97700.72;;;10.86;69.72
64876;BME280;51369;49.862;9.908;2022-12-29T01:41:01;97699.78;;;10.87;69.64
64876;BME280;51369;49.862;9.908;2022-12-29T01:43:58;97707.09;;;10.85;70.19
64876;BME280;51369;49.862;9.908;2022-12-29T01:51:30;97715.03;;;10.88;70.53
64876;BME280;51369;49.862;9.908;2022-12-29T01:53:58;97706.84;;;10.90;69.67
64876;BME280;51369;49.862;9.908;2022-12-29T01:56:25;97710.25;;;10.93;70.07
64876;BME280;51369;49.862;9.908;2022-12-29T01:58:56;97707.38;;;10.96;70.11
64876;BME280;51369;49.862;9.908;2022-12-29T02:01:25;97705.47;;;10.98;70.78
64876;BME280;51369;49.862;9.908;2022-12-29T02:03:51;97713.50;;;11.00;70.22
64876;BME280;51369;49.862;9.908;2022-12-29T02:06:23;97703.63;;;10.99;69.92
64876;BME280;51369;49.862;9.908;2022-12-29T02:08:53;97713.31;;;11.03;70.67
64876;BME280;51369;49.862;9.908;2022-12-29T02:11:23;97714.09;;;11.05;70.47
64876;BME280;51369;49.862;9.908;2022-12-29T02:13:50;97702.34;;;11.06;70.76
64876;BME280;51369;49.862;9.908;2022-12-29T02:22:07;97702.78;;;11.14;71.67
64876;BME280;51369;49.862;9.908;2022-12-29T02:27:43;97695.56;;;11.15;71.74
64876;BME280;51369;49.862;9.908;2022-12-29T02:30:45;97702.78;;;11.14;72.68
64876;BME280;51369;49.862;9.908;2022-12-29T02:33:26;97693.03;;;11.12;72.81
64876;BME280;51369;49.862;9.908;2022-12-29T02:36:12;97693.97;;;11.11;73.65
64876;BME280;51369;49.862;9.908;2022-12-29T02:38:51;97676.91;;;11.10;73.55
64876;BME280;51369;49.862;9.908;2022-12-29T02:44:16;97675.06;;;11.11;74.30
64876;BME280;51369;49.862;9.908;2022-12-29T02:52:06;97680.47;;;11.11;74.06
64876;BME280;51369;49.862;9.908;2022-12-29T02:54:33;97679.53;;;11.12;74.88
64876;BME280;51369;49.862;9.908;2022-12-29T02:57:27;97694.06;;;11.09;74.39
64876;BME280;51369;49.862;9.908;2022-12-29T03:00:00;97690.50;;;11.08;74.63
64876;BME280;51369;49.862;9.908;2022-12-29T03:02:37;97686.06;;;11.07;75.23
64876;BME280;51369;49.862;9.908;2022-12-29T03:05:22;97691.53;;;11.06;75.49
64876;BME280;51369;49.862;9.908;2022-12-29T03:08:29;97697.91;;;11.05;75.73
64876;BME280;51369;49.862;9.908;2022-12-29T03:11:07;97695.19;;;11.05;76.09
64876;BME280;51369;49.862;9.908;2022-12-29T03:13:58;97690.66;;;11.05;76.86
64876;BME280;51369;49.862;9.908;2022-12-29T03:16:47;97687.97;;;11.05;76.35
64876;BME280;51369;49.862;9.908;2022-12-29T03:19:19;97696.06;;;11.05;77.10
64876;BME280;51369;49.862;9.908;2022-12-29T03:22:05;97684.47;;;11.03;77.25
64876;BME280;51369;49.862;9.908;2022-12-29T03:27:48;97679.84;;;11.05;76.67
64876;BME280;51369;49.862;9.908;2022-12-29T03:30:14;97678.13;;;11.04;77.73
64876;BME280;51369;49.862;9.908;2022-12-29T03:32:44;97673.66;;;11.03;77.40
64876;BME280;51369;49.862;9.908;2022-12-29T03:35:15;97665.56;;;11.03;77.57
64876;BME280;51369;49.862;9.908;2022-12-29T03:37:52;97674.72;;;11.01;77.89
64876;BME280;51369;49.862;9.908;2022-12-29T03:40:21;97662.00;;;11.03;77.53
64876;BME280;51369;49.862;9.908;2022-12-29T03:42:49;97667.41;;;11.03;78.18
64876;BME280;51369;49.862;9.908;2022-12-29T03:45:14;97662.88;;;11.03;78.11
64876;BME280;51369;49.862;9.908;2022-12-29T03:47:40;97663.81;;;11.02;77.97
64876;BME280;51369;49.862;9.908;2022-12-29T03:50:06;97650.31;;;11.02;77.81
64876;BME280;51369;49.862;9.908;2022-12-29T03:52:38;97650.22;;;11.04;78.07
64876;BME280;51369;49.862;9.908;2022-12-29T03:55:05;97658.25;;;11.05;78.73
64876;BME280;51369;49.862;9.908;2022-12-29T03:57:31;97660.94;;;11.05;78.73
64876;BME280;51369;49.862;9.908;2022-12-29T04:00:00;97652.84;;;11.05;77.93
64876;BME280;51369;49.862;9.908;2022-12-29T04:02:28;97653.72;;;11.06;77.86
64876;BME280;51369;49.862;9.908;2022-12-29T04:04:54;97656.25;;;11.09;78.57
64876;BME280;51369;49.862;9.908;2022-12-29T04:07:19;97659.81;;;11.09;78.01
64876;BME280;51369;49.862;9.908;2022-12-29T04:09:45;97666.09;;;11.10;79.01
64876;BME280;51369;49.862;9.908;2022-12-29T04:12:16;97675.06;;;11.11;77.94
64876;BME280;51369;49.862;9.908;2022-12-29T04:14:41;97663.22;;;11.13;78.49
64876;BME280;51369;49.862;9.908;2022-12-29T04:17:07;97659.66;;;11.13;78.41
64876;BME280;51369;49.862;9.908;2022-12-29T04:19:32;97660.44;;;11.15;78.26
64876;BME280;51369;49.862;9.908;2022-12-29T04:21:58;97648.66;;;11.16;78.03
64876;BME280;51369;49.862;9.908;2022-12-29T04:24:23;97656.69;;;11.17;78.54
64876;BME280;51369;49.862;9.908;2022-12-29T04:26:49;97642.31;;;11.17;78.16
64876;BME280;51369;49.862;9.908;2022-12-29T04:29:32;97639.69;;;11.15;78.39
64876;BME280;51369;49.862;9.908;2022-12-29T04:32:23;97652.34;;;11.15;78.42
64876;BME280;51369;49.862;9.908;2022-12-29T04:34:51;97644.22;;;11.15;78.17
64876;BME280;51369;49.862;9.908;2022-12-29T04:37:17;97644.06;;;11.18;77.99
64876;BME280;51369;49.862;9.908;2022-12-29T04:39:43;97641.25;;;11.19;78.47
64876;BME280;51369;49.862;9.908;2022-12-29T04:42:08;97625.84;;;11.21;78.97
64876;BME280;51369;49.862;9.908;2022-12-29T04:44:33;97623.91;;;11.23;78.10
64876;BME280;51369;49.862;9.908;2022-12-29T04:47:10;97625.56;;;11.26;78.28
64876;BME280;51369;49.862;9.908;2022-12-29T04:49:46;97621.75;;;11.30;78.02
64876;BME280;51369;49.862;9.908;2022-12-29T04:52:30;97621.91;;;11.27;77.85
64876;BME280;51369;49.862;9.908;2022-12-29T04:54:56;97625.66;;;11.24;77.57
64876;BME280;51369;49.862;9.908;2022-12-29T04:57:21;97631.94;;;11.25;77.15
64876;BME280;51369;49.862;9.908;2022-12-29T04:59:51;97628.28;;;11.26;78.14
64876;BME280;51369;49.862;9.908;2022-12-29T05:02:17;97632.63;;;11.28;78.10
64876;BME280;51369;49.862;9.908;2022-12-29T05:04:44;97631.59;;;11.31;77.88
64876;BME280;51369;49.862;9.908;2022-12-29T05:07:09;97626.00;;;11.34;77.14
64876;BME280;51369;49.862;9.908;2022-12-29T05:09:36;97626.69;;;11.37;77.63
64876;BME280;51369;49.862;9.908;2022-12-29T05:12:01;97622.94;;;11.40;77.30
64876;BME280;51369;49.862;9.908;2022-12-29T05:14:28;97625.47;;;11.43;76.69
64876;BME280;51369;49.862;9.908;2022-12-29T05:16:53;97621.63;;;11.47;76.98
64876;BME280;51369;49.862;9.908;2022-12-29T05:19:19;97627.81;;;11.49;76.54
64876;BME280;51369;49.862;9.908;2022-12-29T05:21:44;97623.19;;;11.51;76.46
64876;BME280;51369;49.862;9.908;2022-12-29T05:24:10;97622.25;;;11.52;76.94
64876;BME280;51369;49.862;9.908;2022-12-29T05:26:36;97615.88;;;11.53;76.02
64876;BME280;51369;49.862;9.908;2022-12-29T05:29:29;97603.22;;;11.54;76.26
64876;BME280;51369;49.862;9.908;2022-12-29T05:31:54;97616.56;;;11.57;75.81
64876;BME280;51369;49.862;9.908;2022-12-29T05:34:20;97620.22;;;11.56;76.51
64876;BME280;51369;49.862;9.908;2022-12-29T05:36:46;97611.16;;;11.57;76.26
64876;BME280;51369;49.862;9.908;2022-12-29T05:39:13;97610.28;;;11.56;76.21
64876;BME280;51369;49.862;9.908;2022-12-29T05:41:38;97622.06;;;11.55;76.37
64876;BME280;51369;49.862;9.908;2022-12-29T05:44:22;97622.06;;;11.55;75.57
64876;BME280;51369;49.862;9.908;2022-12-29T05:47:14;97624.66;;;11.57;75.99
64876;BME280;51369;49.862;9.908;2022-12-29T05:50:12;97622.84;;;11.57;76.00
64876;BME280;51369;49.862;9.908;2022-12-29T05:52:57;97621.09;;;11.56;75.69
64876;BME280;51369;49.862;9.908;2022-12-29T05:55:22;97622.84;;;11.57;75.21
64876;BME280;51369;49.862;9.908;2022-12-29T05:57:51;97619.25;;;11.57;75.50
64876;BME280;51369;49.862;9.908;2022-12-29T06:00:16;97617.44;;;11.57;75.20
64876;BME280;51369;49.862;9.908;2022-12-29T06:02:43;97616.56;;;11.57;75.16
64876;BME280;51369;49.862;9.908;2022-12-29T06:05:09;97616.47;;;11.58;75.07
64876;BME280;51369;49.862;9.908;2022-12-29T06:07:36;97617.44;;;11.57;74.52
64876;BME280;51369;49.862;9.908;2022-12-29T06:10:02;97619.16;;;11.58;74.95
64876;BME280;51369;49.862;9.908;2022-12-29T06:12:31;97623.72;;;11.58;74.15
64876;BME280;51369;49.862;9.908;2022-12-29T06:14:56;97620.91;;;11.59;74.99
64876;BME280;51369;49.862;9.908;2022-12-29T06:17:22;97619.09;;;11.60;74.32
64876;BME280;51369;49.862;9.908;2022-12-29T06:19:49;97616.28;;;11.61;74.60
64876;BME280;51369;49.862;9.908;2022-12-29T06:22:16;97620.75;;;11.62;74.96
64876;BME280;51369;49.862;9.908;2022-12-29T06:24:41;97613.41;;;11.64;74.02
64876;BME280;51369;49.862;9.908;2022-12-29T06:27:07;97615.94;;;11.67;74.33
64876;BME280;51369;49.862;9.908;2022-12-29T06:29:33;97602.31;;;11.69;74.78
64876;BME280;51369;49.862;9.908;2022-12-29T06:32:00;97611.13;;;11.72;74.21
64876;BME280;51369;49.862;9.908;2022-12-29T06:34:27;97615.47;;;11.75;74.65
64876;BME280;51369;49.862;9.908;2022-12-29T06:36:52;97617.22;;;11.76;74.25
64876;BME280;51369;49.862;9.908;2022-12-29T06:39:18;97626.16;;;11.78;73.82
64876;BME280;51369;49.862;9.908;2022-12-29T06:41:53;97619.59;;;11.82;73.49
64876;BME280;51369;49.862;9.908;2022-12-29T06:44:41;97619.59;;;11.82;73.38
64876;BME280;51369;49.862;9.908;2022-12-29T06:47:08;97614.97;;;11.84;73.73
64876;BME280;51369;49.862;9.908;2022-12-29T06:49:34;97619.31;;;11.87;73.80
64876;BME280;51369;49.862;9.908;2022-12-29T06:51:59;97619.22;;;11.88;73.40
64876;BME280;51369;49.862;9.908;2022-12-29T06:54:26;97619.03;;;11.91;73.02
64876;BME280;51369;49.862;9.908;2022-12-29T06:56:51;97622.53;;;11.93;73.05
64876;BME280;51369;49.862;9.908;2022-12-29T06:59:17;97620.50;;;11.97;72.83
64876;BME280;51369;49.862;9.908;2022-12-29T07:01:42;97625.81;;;11.98;72.52
64876;BME280;51369;49.862;9.908;2022-12-29T07:04:08;97620.31;;;12.00;72.64
64876;BME280;51369;49.862;9.908;2022-12-29T07:06:34;97621.00;;;12.03;72.53
64876;BME280;51369;49.862;9.908;2022-12-29T07:08:59;97624.66;;;12.02;72.91
64876;BME280;51369;49.862;9.908;2022-12-29T07:11:24;97620.91;;;12.05;72.61
64876;BME280;51369;49.862;9.908;2022-12-29T07:13:50;97633.47;;;12.06;72.54
64876;BME280;51369;49.862;9.908;2022-12-29T07:16:16;97627.97;;;12.08;71.98
64876;BME280;51369;49.862;9.908;2022-12-29T07:18:41;97623.53;;;12.07;71.92
64876;BME280;51369;49.862;9.908;2022-12-29T07:21:06;97629.72;;;12.09;71.84
64876;BME280;51369;49.862;9.908;2022-12-29T07:23:32;97628.84;;;12.08;72.45
64876;BME280;51369;49.862;9.908;2022-12-29T07:26:05;97628.84;;;12.08;72.39
64876;BME280;51369;49.862;9.908;2022-12-29T07:28:31;97623.25;;;12.11;72.38
64876;BME280;51369;49.862;9.908;2022-12-29T07:30:58;97628.66;;;12.11;72.53
64876;BME280;51369;49.862;9.908;2022-12-29T07:33:23;97625.84;;;12.13;72.35
64876;BME280;51369;49.862;9.908;2022-12-29T07:35:49;97620.44;;;12.13;71.88
64876;BME280;51369;49.862;9.908;2022-12-29T07:38:14;97625.84;;;12.13;72.69
64876;BME280;51369;49.862;9.908;2022-12-29T07:40:40;97627.69;;;12.12;72.53
64876;BME280;51369;49.862;9.908;2022-12-29T07:43:05;97627.69;;;12.12;72.28
64876;BME280;51369;49.862;9.908;2022-12-29T07:45:37;97620.44;;;12.13;71.91
64876;BME280;51369;49.862;9.908;2022-12-29T07:48:07;97627.69;;;12.12;72.14
64876;BME280;51369;49.862;9.908;2022-12-29T07:50:36;97628.56;;;12.13;72.23
64876;BME280;51369;49.862;9.908;2022-12-29T07:53:03;97626.81;;;12.12;72.19
64876;BME280;51369;49.862;9.908;2022-12-29T07:55:28;97632.22;;;12.12;72.13
64876;BME280;51369;49.862;9.908;2022-12-29T07:57:55;97629.53;;;12.12;71.61
64876;BME280;51369;49.862;9.908;2022-12-29T08:00:21;97633.09;;;12.12;71.81
64876;BME280;51369;49.862;9.908;2022-12-29T08:02:47;97624.13;;;12.12;72.11
64876;BME280;51369;49.862;9.908;2022-12-29T08:05:12;97617.84;;;12.11;72.48
64876;BME280;51369;49.862;9.908;2022-12-29T08:07:37;97624.13;;;12.12;71.68
64876;BME280;51369;49.862;9.908;2022-12-29T08:10:03;97614.16;;;12.12;71.58
64876;BME280;51369;49.862;9.908;2022-12-29T08:12:29;97614.16;;;12.12;71.45
64876;BME280;51369;49.862;9.908;2022-12-29T08:14:54;97618.63;;;12.13;71.22
64876;BME280;51369;49.862;9.908;2022-12-29T08:17:20;97625.72;;;12.14;71.20
64876;BME280;51369;49.862;9.908;2022-12-29T08:19:45;97622.06;;;12.15;71.60
64876;BME280;51369;49.862;9.908;2022-12-29T08:22:11;97625.63;;;12.16;71.56
64876;BME280;51369;49.862;9.908;2022-12-29T08:24:36;97625.63;;;12.16;71.56
64876;BME280;51369;49.862;9.908;2022-12-29T08:27:01;97626.50;;;12.16;72.05
64876;BME280;51369;49.862;9.908;2022-12-29T08:29:27;97635.59;;;12.15;71.78
64876;BME280;51369;49.862;9.908;2022-12-29T08:31:52;97631.91;;;12.16;72.53
64876;BME280;51369;49.862;9.908;2022-12-29T08:34:18;97629.22;;;12.16;72.35
64876;BME280;51369;49.862;9.908;2022-12-29T08:36:43;97635.50;;;12.17;71.54
64876;BME280;51369;49.862;9.908;2022-12-29T08:39:08;97635.50;;;12.17;72.31
64876;BME280;51369;49.862;9.908;2022-12-29T08:41:34;97640.81;;;12.18;72.00
64876;BME280;51369;49.862;9.908;2022-12-29T08:43:59;97636.28;;;12.19;71.96
64876;BME280;51369;49.862;9.908;2022-12-29T08:46:25;97638.78;;;12.22;72.15
64876;BME280;51369;49.862;9.908;2022-12-29T08:48:50;97629.63;;;12.24;71.63
64876;BME280;51369;49.862;9.908;2022-12-29T08:51:16;97637.47;;;12.29;72.20
64876;BME280;51369;49.862;9.908;2022-12-29T08:53:42;97637.25;;;12.32;71.76
64876;BME280;51369;49.862;9.908;2022-12-29T08:56:08;97630.78;;;12.34;72.37
64876;BME280;51369;49.862;9.908;2022-12-29T08:58:43;97640.47;;;12.38;71.66
64876;BME280;51369;49.862;9.908;2022-12-29T09:01:10;97642.03;;;12.43;72.16
64876;BME280;51369;49.862;9.908;2022-12-29T09:03:36;97638.25;;;12.45;72.18
64876;BME280;51369;49.862;9.908;2022-12-29T09:06:01;97641.63;;;12.49;71.98
64876;BME280;51369;49.862;9.908;2022-12-29T09:08:27;97643.28;;;12.51;71.23
64876;BME280;51369;49.862;9.908;2022-12-29T09:10:52;97636.72;;;12.55;70.90
64876;BME280;51369;49.862;9.908;2022-12-29T09:13:18;97635.47;;;12.61;71.67
64876;BME280;51369;49.862;9.908;2022-12-29T09:15:44;97644.25;;;12.64;71.37
64876;BME280;51369;49.862;9.908;2022-12-29T09:18:10;97638.56;;;12.69;71.30
64876;BME280;51369;49.862;9.908;2022-12-29T09:20:36;97641.84;;;12.74;70.89
64876;BME280;51369;49.862;9.908;2022-12-29T09:23:02;97638.75;;;12.80;70.39
64876;BME280;51369;49.862;9.908;2022-12-29T09:25:27;97647.47;;;12.85;70.24
64876;BME280;51369;49.862;9.908;2022-12-29T09:27:54;97648.25;;;12.87;69.76
64876;BME280;51369;49.862;9.908;2022-12-29T09:30:22;97668.56;;;12.94;69.77
64876;BME280;51369;49.862;9.908;2022-12-29T09:32:48;97662.66;;;13.02;69.84
64876;BME280;51369;49.862;9.908;2022-12-29T09:35:14;97655.88;;;13.09;69.86
64876;BME280;51369;49.862;9.908;2022-12-29T09:37:40;97660.03;;;13.15;69.12
64876;BME280;51369;49.862;9.908;2022-12-29T09:40:07;97662.28;;;13.22;70.85
64876;BME280;51369;49.862;9.908;2022-12-29T09:45:42;97653.16;;;13.38;69.16
64876;BME280;51369;49.862;9.908;2022-12-29T09:48:16;97633.75;;;13.44;70.22
64876;BME280;51369;49.862;9.908;2022-12-29T09:50:44;97646.16;;;13.48;69.35
64876;BME280;51369;49.862;9.908;2022-12-29T09:53:30;97640.53;;;13.51;70.25
64876;BME280;51369;49.862;9.908;2022-12-29T09:56:00;97622.97;;;13.56;71.78
64876;BME280;51369;49.862;9.908;2022-12-29T09:58:36;97636.31;;;13.59;69.74
64876;BME280;51369;49.862;9.908;2022-12-29T10:01:14;97630.50;;;13.65;69.95
64876;BME280;51369;49.862;9.908;2022-12-29T10:03:49;97632.91;;;13.70;71.16
64876;BME280;51369;49.862;9.908;2022-12-29T10:06:26;97622.16;;;13.68;69.67
64876;BME280;51369;49.862;9.908;2022-12-29T10:09:06;97631.81;;;13.73;69.33
64876;BME280;51369;49.862;9.908;2022-12-29T10:14:26;97630.53;;;13.78;71.30
64876;BME280;51369;49.862;9.908;2022-12-29T10:17:03;97626.53;;;13.84;71.77
64876;BME280;51369;49.862;9.908;2022-12-29T10:24:47;97618.53;;;14.08;72.45
64876;BME280;51369;49.862;9.908;2022-12-29T10:27:15;97622.78;;;14.12;69.97
64876;BME280;51369;49.862;9.908;2022-12-29T10:29:52;97616.16;;;14.16;70.02
64876;BME280;51369;49.862;9.908;2022-12-29T10:35:03;97616.94;;;14.30;70.28
64876;BME280;51369;49.862;9.908;2022-12-29T10:40:19;97616.78;;;14.46;69.28
64876;BME280;51369;49.862;9.908;2022-12-29T10:42:52;97623.41;;;14.55;70.95
64876;BME280;51369;49.862;9.908;2022-12-29T10:45:19;97604.19;;;14.58;71.48
64876;BME280;51369;49.862;9.908;2022-12-29T10:47:56;97610.38;;;14.60;70.32
64876;BME280;51369;49.862;9.908;2022-12-29T10:50:25;97609.06;;;14.65;69.86
64876;BME280;51369;49.862;9.908;2022-12-29T10:52:51;97629.50;;;14.71;69.97
64876;BME280;51369;49.862;9.908;2022-12-29T10:55:22;97618.19;;;14.77;70.28
64876;BME280;51369;49.862;9.908;2022-12-29T10:57:49;97605.56;;;14.89;72.56
64876;BME280;51369;49.862;9.908;2022-12-29T11:00:20;97621.97;;;14.87;70.20
64876;BME280;51369;49.862;9.908;2022-12-29T11:06:01;97612.75;;;14.90;69.33
64876;BME280;51369;49.862;9.908;2022-12-29T11:08:35;97604.59;;;14.90;69.98
64876;BME280;51369;49.862;9.908;2022-12-29T11:11:09;97627.75;;;14.83;68.70
64876;BME280;51369;49.862;9.908;2022-12-29T11:13:56;97628.19;;;14.77;69.85
64876;BME280;51369;49.862;9.908;2022-12-29T11:16:30;97616.78;;;14.72;68.40
64876;BME280;51369;49.862;9.908;2022-12-29T11:18:57;97632.53;;;14.67;69.42
64876;BME280;51369;49.862;9.908;2022-12-29T11:24:02;97609.81;;;14.55;71.29
64876;BME280;51369;49.862;9.908;2022-12-29T11:26:29;97612.22;;;14.47;69.54
64876;BME280;51369;49.862;9.908;2022-12-29T11:31:49;97611.75;;;14.40;69.18
64876;BME280;51369;49.862;9.908;2022-12-29T11:34:41;97609.72;;;14.44;71.17
64876;BME280;51369;49.862;9.908;2022-12-29T11:37:11;97624.16;;;14.44;70.91
64876;BME280;51369;49.862;9.908;2022-12-29T11:40:04;97616.00;;;14.44;70.02
64876;BME280;51369;49.862;9.908;2022-12-29T11:42:41;97615.78;;;14.47;70.87
64876;BME280;51369;49.862;9.908;2022-12-29T11:45:18;97622.31;;;14.45;69.68
64876;BME280;51369;49.862;9.908;2022-12-29T11:47:47;97612.31;;;14.45;69.35
64876;BME280;51369;49.862;9.908;2022-12-29T11:50:24;97620.75;;;14.41;69.66
64876;BME280;51369;49.862;9.908;2022-12-29T11:53:07;97619.88;;;14.40;69.95
64876;BME280;51369;49.862;9.908;2022-12-29T11:55:50;97616.53;;;14.37;70.22
64876;BME280;51369;49.862;9.908;2022-12-29T11:58:17;97611.84;;;14.39;71.28
64876;BME280;51369;49.862;9.908;2022-12-29T12:00:43;97616.13;;;14.43;70.98
64876;BME280;51369;49.862;9.908;2022-12-29T12:03:16;97625.03;;;14.45;70.33
64876;BME280;51369;49.862;9.908;2022-12-29T12:05:54;97621.88;;;14.51;69.76
64876;BME280;51369;49.862;9.908;2022-12-29T12:11:04;97622.53;;;14.67;71.08
64876;BME280;51369;49.862;9.908;2022-12-29T12:13:35;97628.63;;;14.71;69.31
64876;BME280;51369;49.862;9.908;2022-12-29T12:16:11;97622.88;;;14.75;68.94
64876;BME280;51369;49.862;9.908;2022-12-29T12:24:00;97618.19;;;14.90;70.62
64876;BME280;51369;49.862;9.908;2022-12-29T12:26:34;97614.25;;;14.94;72.09
64876;BME280;51369;49.862;9.908;2022-12-29T12:29:15;97628.94;;;14.91;69.92
64876;BME280;51369;49.862;9.908;2022-12-29T12:31:54;97624.03;;;14.96;72.53
64876;BME280;51369;49.862;9.908;2022-12-29T12:34:30;97622.63;;;15.04;70.80
64876;BME280;51369;49.862;9.908;2022-12-29T12:43:04;97635.19;;;15.17;69.86
64876;BME280;51369;49.862;9.908;2022-12-29T12:46:03;97643.16;;;15.08;70.83
64876;BME280;51369;49.862;9.908;2022-12-29T12:48:56;97642.72;;;15.01;69.68
64876;BME280;51369;49.862;9.908;2022-12-29T12:51:33;97673.63;;;14.87;70.98
64876;BME280;51369;49.862;9.908;2022-12-29T12:54:20;97686.44;;;14.60;70.57
64876;BME280;51369;49.862;9.908;2022-12-29T13:00:07;97658.03;;;13.99;71.26
64876;BME280;51369;49.862;9.908;2022-12-29T13:02:49;97654.84;;;13.80;72.45
64876;BME280;51369;49.862;9.908;2022-12-29T13:11:17;97657.66;;;13.51;73.28
64876;BME280;51369;49.862;9.908;2022-12-29T13:24:36;97669.91;;;13.30;73.92
64876;BME280;51369;49.862;9.908;2022-12-29T13:30:17;97677.38;;;13.26;74.10
64876;BME280;51369;49.862;9.908;2022-12-29T13:32:56;97664.97;;;13.22;73.34
64876;BME280;51369;49.862;9.908;2022-12-29T13:36:03;97658.88;;;13.19;74.09
64876;BME280;51369;49.862;9.908;2022-12-29T13:38:42;97666.16;;;13.18;73.48
64876;BME280;51369;49.862;9.908;2022-12-29T13:43:44;97680.72;;;13.16;73.49
64876;BME280;51369;49.862;9.908;2022-12-29T13:46:15;97669.13;;;13.14;73.23
64876;BME280;51369;49.862;9.908;2022-12-29T13:48:47;97674.53;;;13.14;73.70
64876;BME280;51369;49.862;9.908;2022-12-29T13:51:16;97671.84;;;13.14;73.40
64876;BME280;51369;49.862;9.908;2022-12-29T13:53:57;97675.72;;;13.10;73.29
64876;BME280;51369;49.862;9.908;2022-12-29T13:56:42;97680.16;;;13.11;72.95
64876;BME280;51369;49.862;9.908;2022-12-29T13:59:28;97689.25;;;13.10;73.14
64876;BME280;51369;49.862;9.908;2022-12-29T14:07:42;97681.91;;;13.12;72.88
64876;BME280;51369;49.862;9.908;2022-12-29T14:13:00;97682.56;;;13.15;72.98
64876;BME280;51369;49.862;9.908;2022-12-29T14:15:27;97675.91;;;13.21;72.75
64876;BME280;51369;49.862;9.908;2022-12-29T14:18:02;97683.84;;;13.24;71.89
64876;BME280;51369;49.862;9.908;2022-12-29T14:20:29;97679.00;;;13.29;72.17
64876;BME280;51369;49.862;9.908;2022-12-29T14:25:56;97695.78;;;13.21;71.54
64876;BME280;51369;49.862;9.908;2022-12-29T14:28:30;97688.69;;;13.19;71.06
64876;BME280;51369;49.862;9.908;2022-12-29T14:30:57;97688.97;;;13.14;70.89
64876;BME280;51369;49.862;9.908;2022-12-29T14:33:25;97693.91;;;13.08;71.26
64876;BME280;51369;49.862;9.908;2022-12-29T14:35:52;97696.03;;;13.02;70.39
64876;BME280;51369;49.862;9.908;2022-12-29T14:38:28;97703.59;;;12.97;71.14
64876;BME280;51369;49.862;9.908;2022-12-29T14:41:16;97699.31;;;12.93;70.30
64876;BME280;51369;49.862;9.908;2022-12-29T14:47:11;97705.91;;;12.89;70.07
64876;BME280;51369;49.862;9.908;2022-12-29T14:49:42;97713.06;;;12.90;71.49
64876;BME280;51369;49.862;9.908;2022-12-29T14:52:13;97709.56;;;12.88;70.69
64876;BME280;51369;49.862;9.908;2022-12-29T14:54:45;97711.41;;;12.88;70.56
64876;BME280;51369;49.862;9.908;2022-12-29T14:57:27;97698.94;;;12.85;70.33
64876;BME280;51369;49.862;9.908;2022-12-29T14:59:57;97696.03;;;12.88;70.36
64876;BME280;51369;49.862;9.908;2022-12-29T15:02:24;97703.38;;;12.86;69.92
64876;BME280;51369;49.862;9.908;2022-12-29T15:04:51;97699.81;;;12.86;70.25
64876;BME280;51369;49.862;9.908;2022-12-29T15:07:18;97708.91;;;12.85;69.70